Time;durP1;ratioP1;P1;durP2;ratioP2;P2;SDS_P1;SDS_P2;PMS_P1;PMS_P2;Temp;Humidity;BMP_temperature;BMP_pressure;BME280_temperature;BME280_humidity;BME280_pressure;Samples;Min_cycle;Max_cycle;Signal;HPM_P1;HPM_P2
2021/07/09 00:01:53;;;;;;;3.50;3.30;;;22.10;65.10;;;;;;5056224;28;20170;-72
2021/07/09 00:04:20;;;;;;;3.70;3.40;;;22.10;65.10;;;;;;5055580;28;20214;-71
2021/07/09 00:06:45;;;;;;;3.63;3.33;;;22.10;65.00;;;;;;5055950;28;20175;-71
2021/07/09 00:09:11;;;;;;;3.80;3.50;;;22.10;65.10;;;;;;5056205;28;20317;-70
2021/07/09 00:11:38;;;;;;;3.45;3.17;;;22.10;65.10;;;;;;5054800;28;20210;-68
2021/07/09 00:14:05;;;;;;;3.30;3.00;;;22.10;65.00;;;;;;5055841;28;20544;-69
2021/07/09 00:16:30;;;;;;;4.07;3.78;;;22.10;65.10;;;;;;5055720;28;20183;-72
2021/07/09 00:18:59;;;;;;;3.30;3.10;;;22.10;65.10;;;;;;5054997;28;20171;-72
2021/07/09 00:21:25;;;;;;;3.67;3.38;;;22.10;65.10;;;;;;5055696;28;20234;-71
2021/07/09 00:23:51;;;;;;;3.70;3.40;;;22.10;65.10;;;;;;5055194;28;20211;-71
2021/07/09 00:26:17;;;;;;;3.72;3.42;;;22.10;65.10;;;;;;5055365;28;20530;-70
2021/07/09 00:28:42;;;;;;;3.95;3.65;;;22.10;65.10;;;;;;5055212;28;20171;-69
2021/07/09 00:31:08;;;;;;;3.80;3.50;;;22.10;65.10;;;;;;5054780;28;20587;-70
2021/07/09 00:33:33;;;;;;;3.60;3.40;;;22.10;65.10;;;;;;5055575;28;20254;-71
2021/07/09 00:35:59;;;;;;;3.53;3.22;;;22.10;65.10;;;;;;5055656;28;20580;-71
2021/07/09 00:38:24;;;;;;;3.33;3.03;;;22.10;65.10;;;;;;5054715;28;20214;-71
2021/07/09 00:40:50;;;;;;;3.42;3.15;;;22.10;65.10;;;;;;5054574;28;20203;-71
2021/07/09 00:43:15;;;;;;;3.28;3.08;;;22.10;65.10;;;;;;5055488;28;20215;-71
2021/07/09 00:45:41;;;;;;;3.63;3.35;;;22.10;65.10;;;;;;5054347;28;20261;-71
2021/07/09 00:48:06;;;;;;;3.50;3.20;;;22.10;65.10;;;;;;5055540;28;20179;-71
2021/07/09 00:50:38;;;;;;;3.30;3.00;;;22.10;65.20;;;;;;5055180;28;20641;-71
2021/07/09 00:53:04;;;;;;;3.58;3.35;;;22.10;65.10;;;;;;5054638;28;20626;-70
2021/07/09 00:55:29;;;;;;;3.70;3.40;;;22.10;65.10;;;;;;5055005;28;20171;-68
2021/07/09 00:58:00;;;;;;;3.53;3.22;;;22.10;65.10;;;;;;5054228;28;20206;-68
2021/07/09 01:00:26;;;;;;;3.53;3.22;;;22.10;65.20;;;;;;5054603;28;20190;-68
2021/07/09 01:02:51;;;;;;;3.60;3.30;;;22.10;65.20;;;;;;5054684;28;20208;-69
2021/07/09 01:05:17;;;;;;;3.35;3.15;;;22.10;65.20;;;;;;5053994;28;20209;-68
2021/07/09 01:07:43;;;;;;;3.75;3.50;;;22.10;65.20;;;;;;5053943;28;20638;-68
2021/07/09 01:10:18;;;;;;;4.25;3.50;;;22.00;65.10;;;;;;5054822;28;20195;-67
2021/07/09 01:12:45;;;;;;;3.40;3.10;;;22.00;65.10;;;;;;5054658;28;20240;-68
2021/07/09 01:15:12;;;;;;;3.22;3.00;;;22.00;65.10;;;;;;5053954;28;20601;-69
2021/07/09 01:17:38;;;;;;;3.40;3.15;;;22.10;65.20;;;;;;5054428;28;20179;-69
2021/07/09 01:20:05;;;;;;;3.80;3.50;;;22.00;65.10;;;;;;5054825;28;20547;-70
2021/07/09 01:22:31;;;;;;;3.90;3.60;;;22.00;65.10;;;;;;5053333;28;20238;-69
2021/07/09 01:24:56;;;;;;;3.75;3.45;;;22.00;65.10;;;;;;5036996;28;20179;-67
2021/07/09 01:27:22;;;;;;;3.80;3.50;;;22.00;65.10;;;;;;5053974;28;20186;-67
2021/07/09 01:29:47;;;;;;;3.70;3.40;;;22.00;65.10;;;;;;5054205;28;20615;-68
2021/07/09 01:32:13;;;;;;;4.20;3.90;;;22.00;65.10;;;;;;5054477;28;20163;-70
2021/07/09 01:34:38;;;;;;;3.65;3.40;;;22.00;65.10;;;;;;5053599;28;20173;-70
2021/07/09 01:37:11;;;;;;;3.83;3.53;;;22.00;65.20;;;;;;5054348;28;20171;-70
2021/07/09 01:39:37;;;;;;;3.53;3.22;;;22.00;65.20;;;;;;5054045;28;20633;-71
2021/07/09 01:42:06;;;;;;;3.50;3.20;;;22.00;65.10;;;;;;5053783;28;20181;-71
2021/07/09 01:44:31;;;;;;;3.88;3.47;;;22.00;65.10;;;;;;5053892;28;20199;-71
2021/07/09 01:46:57;;;;;;;3.70;3.50;;;22.00;65.20;;;;;;5053046;28;20212;-71
2021/07/09 01:49:22;;;;;;;3.70;3.50;;;22.00;65.10;;;;;;5052147;28;20649;-68
2021/07/09 01:51:48;;;;;;;3.88;3.58;;;22.00;65.10;;;;;;5053566;28;20206;-68
2021/07/09 01:54:16;;;;;;;4.38;3.92;;;22.00;65.10;;;;;;5053509;28;20618;-67
2021/07/09 01:56:42;;;;;;;3.75;3.45;;;22.00;65.10;;;;;;5051814;28;20623;-68
2021/07/09 01:59:07;;;;;;;4.15;3.75;;;22.00;65.10;;;;;;5054053;28;20202;-67
2021/07/09 02:01:32;;;;;;;3.60;3.40;;;22.00;65.10;;;;;;5053721;28;20251;-67
2021/07/09 02:03:58;;;;;;;3.90;3.60;;;22.00;65.10;;;;;;5053146;28;20219;-68
2021/07/09 02:06:23;;;;;;;3.42;3.22;;;22.00;65.10;;;;;;5053802;28;20301;-68
2021/07/09 02:08:49;;;;;;;4.35;3.80;;;22.00;65.10;;;;;;5053522;28;20186;-68
2021/07/09 02:11:15;;;;;;;4.13;3.72;;;22.00;65.20;;;;;;5053188;28;20180;-68
2021/07/09 02:13:40;;;;;;;3.50;3.30;;;22.00;65.10;;;;;;5053239;28;20176;-68
2021/07/09 02:16:06;;;;;;;3.33;3.13;;;22.00;65.10;;;;;;5053863;28;20175;-69
2021/07/09 02:18:31;;;;;;;3.60;3.30;;;22.00;65.10;;;;;;5052649;28;20175;-69
2021/07/09 02:20:58;;;;;;;4.10;3.80;;;21.90;65.00;;;;;;5053296;28;20179;-67
2021/07/09 02:23:24;;;;;;;3.67;3.38;;;22.00;65.20;;;;;;5053522;28;20661;-68
2021/07/09 02:25:49;;;;;;;3.92;3.63;;;21.90;65.00;;;;;;5052608;28;20187;-67
2021/07/09 02:28:15;;;;;;;3.78;3.47;;;21.90;65.10;;;;;;5053478;28;20662;-67
2021/07/09 02:30:40;;;;;;;4.80;4.32;;;21.90;65.10;;;;;;5052232;28;20274;-67
2021/07/09 02:33:06;;;;;;;3.35;3.15;;;21.90;65.00;;;;;;5053341;28;20621;-68
2021/07/09 02:35:33;;;;;;;3.83;3.53;;;21.90;65.10;;;;;;5052950;28;20649;-68
2021/07/09 02:37:59;;;;;;;4.38;4.07;;;21.90;65.00;;;;;;5052643;28;20182;-68
2021/07/09 02:40:27;;;;;;;3.85;3.55;;;21.90;65.10;;;;;;5053285;28;20262;-70
2021/07/09 02:42:54;;;;;;;3.63;3.40;;;21.90;65.10;;;;;;5052840;28;20563;-71
2021/07/09 02:45:19;;;;;;;4.20;3.85;;;21.90;65.90;;;;;;5052561;28;20207;-71
2021/07/09 02:47:45;;;;;;;3.45;3.25;;;21.90;65.10;;;;;;5052840;28;20727;-72
2021/07/09 02:50:19;;;;;;;4.20;3.90;;;21.90;65.10;;;;;;5052922;28;20171;-70
2021/07/09 02:52:44;;;;;;;4.18;3.88;;;21.90;66.00;;;;;;5052153;28;20182;-71
2021/07/09 02:55:10;;;;;;;3.65;3.35;;;21.90;65.10;;;;;;5053010;28;20265;-67
2021/07/09 02:57:36;;;;;;;3.95;3.65;;;21.90;65.10;;;;;;5052792;28;20183;-68
2021/07/09 03:00:05;;;;;;;3.88;3.58;;;21.90;65.10;;;;;;5052307;28;20210;-67
2021/07/09 03:02:30;;;;;;;3.88;3.65;;;21.90;65.10;;;;;;5052424;28;20243;-67
2021/07/09 03:04:56;;;;;;;4.57;3.60;;;21.90;65.10;;;;;;5052631;28;20210;-68
2021/07/09 03:07:21;;;;;;;3.97;3.67;;;21.90;65.10;;;;;;5052128;28;20530;-67
2021/07/09 03:09:47;;;;;;;4.20;3.90;;;21.90;65.10;;;;;;5052666;28;20175;-71
2021/07/09 03:12:12;;;;;;;4.10;3.80;;;21.90;65.10;;;;;;5052953;28;20163;-68
2021/07/09 03:14:39;;;;;;;3.85;3.55;;;21.90;65.10;;;;;;5051797;28;20174;-68
2021/07/09 03:17:05;;;;;;;4.22;3.92;;;21.90;65.10;;;;;;5052703;28;20177;-69
2021/07/09 03:19:30;;;;;;;5.15;4.40;;;21.80;65.00;;;;;;5052556;28;20270;-70
2021/07/09 03:21:56;;;;;;;4.43;4.03;;;21.80;65.00;;;;;;5051813;28;20226;-68
2021/07/09 03:24:21;;;;;;;4.32;3.92;;;21.80;65.10;;;;;;5052670;28;20207;-68
2021/07/09 03:26:47;;;;;;;4.00;3.70;;;21.90;65.10;;;;;;5051896;28;20661;-70
2021/07/09 03:29:12;;;;;;;4.50;4.10;;;21.80;65.00;;;;;;5052780;28;20175;-70
2021/07/09 03:31:38;;;;;;;4.90;3.92;;;21.80;65.90;;;;;;5052376;28;20198;-71
2021/07/09 03:34:03;;;;;;;3.75;3.45;;;21.80;65.10;;;;;;5051831;28;20177;-71
2021/07/09 03:36:29;;;;;;;5.15;4.20;;;21.80;65.00;;;;;;5052826;28;20191;-71
2021/07/09 03:38:55;;;;;;;4.20;3.90;;;21.80;65.10;;;;;;5052695;28;20638;-71
2021/07/09 03:41:21;;;;;;;4.05;3.70;;;21.80;65.00;;;;;;5051871;28;20174;-69
2021/07/09 03:43:46;;;;;;;4.13;3.83;;;21.80;65.10;;;;;;5052161;28;20569;-69
2021/07/09 03:46:12;;;;;;;3.53;3.22;;;21.80;65.00;;;;;;5052269;28;20626;-68
2021/07/09 03:48:37;;;;;;;4.07;3.65;;;21.80;65.10;;;;;;5051424;28;20178;-69
2021/07/09 03:51:04;;;;;;;3.88;3.58;;;21.80;65.10;;;;;;5052332;28;20200;-69
2021/07/09 03:53:29;;;;;;;4.50;4.10;;;21.80;65.00;;;;;;5052456;28;20638;-69
2021/07/09 03:55:55;;;;;;;4.57;4.18;;;21.80;65.90;;;;;;5051901;28;20419;-68
2021/07/09 03:58:20;;;;;;;4.10;3.80;;;21.80;65.00;;;;;;5052519;28;20174;-68
2021/07/09 04:00:46;;;;;;;4.38;3.80;;;21.80;65.00;;;;;;5052160;28;20613;-70
2021/07/09 04:03:11;;;;;;;3.88;3.53;;;21.80;65.00;;;;;;5051660;28;20203;-71
2021/07/09 04:05:37;;;;;;;3.72;3.42;;;21.80;65.00;;;;;;5052117;28;20179;-70
2021/07/09 04:08:03;;;;;;;4.03;3.72;;;21.80;65.10;;;;;;5052565;28;20178;-71
2021/07/09 04:10:28;;;;;;;4.55;3.85;;;21.80;65.00;;;;;;5051509;28;20187;-69
2021/07/09 04:12:54;;;;;;;4.05;3.65;;;21.80;65.10;;;;;;5052132;28;20171;-70
2021/07/09 04:15:20;;;;;;;4.18;3.88;;;21.80;65.10;;;;;;5052128;28;20198;-70
2021/07/09 04:17:45;;;;;;;3.90;3.60;;;21.80;65.10;;;;;;5054938;28;20167;-71
2021/07/09 04:20:11;;;;;;;3.92;3.63;;;21.80;65.00;;;;;;5056333;28;20171;-71
2021/07/09 04:22:37;;;;;;;4.03;3.72;;;21.80;65.00;;;;;;5055445;28;20231;-70
2021/07/09 04:25:04;;;;;;;4.68;4.25;;;21.80;65.10;;;;;;5055125;28;20534;-69
2021/07/09 04:27:30;;;;;;;3.97;3.60;;;21.80;65.00;;;;;;5055463;28;20656;-69
2021/07/09 04:29:55;;;;;;;4.30;4.00;;;21.80;65.00;;;;;;5055575;28;20183;-70
2021/07/09 04:32:21;;;;;;;3.70;3.50;;;21.80;65.00;;;;;;5055132;28;20171;-67
2021/07/09 04:34:46;;;;;;;4.28;3.90;;;21.80;64.90;;;;;;5055481;28;20175;-67
2021/07/09 04:37:12;;;;;;;4.18;3.88;;;21.80;65.00;;;;;;5055096;28;20273;-71
2021/07/09 04:39:38;;;;;;;4.45;4.10;;;21.80;65.00;;;;;;5055345;28;20171;-72
2021/07/09 04:42:04;;;;;;;3.90;3.65;;;21.80;65.00;;;;;;5055459;28;20186;-70
2021/07/09 04:44:30;;;;;;;3.90;3.60;;;21.80;65.00;;;;;;5054343;28;20220;-71
2021/07/09 04:46:55;;;;;;;4.28;3.97;;;21.80;65.00;;;;;;5055374;28;20180;-70
2021/07/09 04:49:21;;;;;;;4.43;3.70;;;21.80;65.00;;;;;;5055232;28;20266;-70
2021/07/09 04:51:46;;;;;;;4.00;3.70;;;21.80;65.00;;;;;;5054317;28;20179;-71
2021/07/09 04:54:12;;;;;;;4.20;3.80;;;21.80;65.90;;;;;;5055448;28;20171;-70
2021/07/09 04:56:37;;;;;;;4.05;3.75;;;21.80;65.00;;;;;;5055136;28;20174;-69
2021/07/09 04:59:03;;;;;;;3.95;3.65;;;21.80;65.00;;;;;;5054436;28;20616;-69
2021/07/09 05:01:28;;;;;;;3.60;3.38;;;21.80;65.00;;;;;;5056402;28;20270;-69
2021/07/09 05:03:54;;;;;;;4.50;4.10;;;21.80;65.00;;;;;;5054775;28;20215;-70
2021/07/09 05:06:20;;;;;;;4.07;3.78;;;21.80;65.00;;;;;;5054817;28;20179;-69
2021/07/09 05:08:45;;;;;;;4.07;3.78;;;21.80;65.00;;;;;;5055043;28;20206;-69
2021/07/09 05:11:11;;;;;;;4.25;3.90;;;21.80;65.00;;;;;;5054831;28;20249;-69
2021/07/09 05:13:39;;;;;;;4.10;3.80;;;21.80;65.00;;;;;;5053753;28;20175;-68
2021/07/09 05:16:07;;;;;;;4.25;3.95;;;21.80;65.00;;;;;;5054672;28;20171;-70
2021/07/09 05:18:33;;;;;;;4.50;4.10;;;21.80;64.90;;;;;;5054725;28;20583;-72
2021/07/09 05:21:01;;;;;;;3.97;3.70;;;22.00;65.00;;;;;;5053975;28;20689;-70
2021/07/09 05:23:27;;;;;;;4.40;4.00;;;21.80;64.80;;;;;;5054683;28;20591;-70
2021/07/09 05:25:54;;;;;;;3.80;3.50;;;21.80;64.70;;;;;;5054314;28;20687;-69
2021/07/09 05:28:19;;;;;;;3.85;3.55;;;21.90;64.80;;;;;;5053740;28;20175;-66
2021/07/09 05:30:45;;;;;;;4.80;4.40;;;21.80;64.70;;;;;;5054440;28;20179;-66
2021/07/09 05:33:10;;;;;;;4.13;3.83;;;21.80;64.80;;;;;;5055244;28;20183;-67
2021/07/09 05:35:36;;;;;;;4.82;4.43;;;21.90;64.70;;;;;;5053399;28;20568;-67
2021/07/09 05:38:06;;;;;;;4.85;4.47;;;21.90;64.80;;;;;;5054600;28;20206;-68
2021/07/09 05:40:31;;;;;;;5.22;4.68;;;21.90;64.70;;;;;;5053453;28;20179;-68
2021/07/09 05:42:56;;;;;;;4.40;4.10;;;21.90;64.70;;;;;;5054009;28;20211;-68
2021/07/09 05:45:22;;;;;;;5.00;4.55;;;21.90;64.70;;;;;;5054241;28;20247;-68
2021/07/09 05:47:47;;;;;;;4.50;4.20;;;21.90;64.70;;;;;;5053087;28;20656;-68
2021/07/09 05:50:13;;;;;;;4.10;3.70;;;21.90;64.70;;;;;;5054261;28;20163;-67
2021/07/09 05:52:39;;;;;;;4.72;4.32;;;21.90;64.70;;;;;;5053928;28;20240;-69
2021/07/09 05:55:05;;;;;;;4.50;4.10;;;21.90;64.70;;;;;;5053420;28;20221;-68
2021/07/09 05:57:30;;;;;;;4.95;4.55;;;21.90;64.70;;;;;;5053636;28;20171;-69
2021/07/09 05:59:56;;;;;;;4.68;4.18;;;21.90;64.70;;;;;;5054190;28;20175;-69
2021/07/09 06:02:21;;;;;;;4.65;4.35;;;21.90;64.70;;;;;;5053391;28;20178;-69
2021/07/09 06:04:47;;;;;;;5.55;4.65;;;21.90;64.60;;;;;;5053799;28;20189;-69
2021/07/09 06:07:19;;;;;;;5.05;4.65;;;21.90;64.70;;;;;;5054081;28;20166;-69
2021/07/09 06:09:45;;;;;;;4.90;4.50;;;21.90;64.60;;;;;;5052848;28;20583;-69
2021/07/09 06:12:10;;;;;;;5.13;4.72;;;21.90;64.70;;;;;;5053803;28;20167;-68
2021/07/09 06:14:39;;;;;;;4.60;4.20;;;21.90;64.70;;;;;;5053156;28;20190;-69
2021/07/09 06:17:04;;;;;;;4.53;4.13;;;21.80;64.60;;;;;;5053117;28;20179;-70
2021/07/09 06:19:30;;;;;;;5.13;4.65;;;21.90;64.70;;;;;;5053248;28;20179;-70
2021/07/09 06:21:55;;;;;;;4.28;3.88;;;21.90;64.80;;;;;;5053423;28;20568;-70
2021/07/09 06:24:22;;;;;;;5.35;4.90;;;21.90;64.80;;;;;;5052683;28;20599;-68
2021/07/09 06:26:47;;;;;;;5.18;4.78;;;21.90;64.90;;;;;;5053062;28;20175;-69
2021/07/09 06:29:13;;;;;;;4.50;4.20;;;21.80;64.80;;;;;;5053610;28;20178;-68
2021/07/09 06:31:38;;;;;;;5.03;4.63;;;21.90;64.80;;;;;;5052550;28;20164;-69
2021/07/09 06:34:04;;;;;;;4.90;4.50;;;21.90;64.90;;;;;;5053451;28;20175;-70
2021/07/09 06:36:29;;;;;;;4.93;4.45;;;21.90;64.90;;;;;;5053226;28;20179;-69
2021/07/09 06:38:55;;;;;;;4.78;4.47;;;21.90;64.80;;;;;;5052216;28;20186;-70
2021/07/09 06:41:20;;;;;;;5.03;4.35;;;21.90;64.80;;;;;;5053236;28;20171;-70
2021/07/09 06:43:46;;;;;;;4.35;4.05;;;21.90;64.70;;;;;;5052263;28;20226;-70
2021/07/09 06:46:11;;;;;;;4.95;4.45;;;21.90;64.70;;;;;;5053108;28;20175;-70
2021/07/09 06:48:37;;;;;;;4.35;4.05;;;22.00;64.70;;;;;;5052694;28;20533;-70
2021/07/09 06:51:03;;;;;;;4.60;4.20;;;21.90;64.70;;;;;;5052249;28;20167;-70
2021/07/09 06:53:28;;;;;;;4.05;3.75;;;21.90;64.60;;;;;;5053099;28;20182;-69
2021/07/09 06:55:57;;;;;;;4.75;4.35;;;22.00;64.70;;;;;;5052802;28;20190;-70
2021/07/09 06:58:22;;;;;;;5.32;4.88;;;22.00;64.70;;;;;;5052301;28;20179;-69
2021/07/09 07:00:48;;;;;;;4.57;4.20;;;22.00;64.70;;;;;;5052586;28;20167;-68
2021/07/09 07:03:13;;;;;;;4.55;4.20;;;22.00;64.70;;;;;;5053103;28;20207;-69
2021/07/09 07:05:39;;;;;;;3.75;3.45;;;22.00;64.70;;;;;;5052030;28;20167;-70
2021/07/09 07:08:15;;;;;;;4.20;3.80;;;22.00;64.70;;;;;;5052806;28;20174;-69
2021/07/09 07:10:40;;;;;;;4.78;4.30;;;22.00;64.60;;;;;;5052520;28;20175;-69
2021/07/09 07:13:06;;;;;;;5.95;4.28;;;22.00;64.70;;;;;;5052178;28;20171;-69
2021/07/09 07:15:31;;;;;;;4.53;4.13;;;22.00;64.60;;;;;;5052595;28;20170;-70
2021/07/09 07:17:56;;;;;;;4.72;4.32;;;22.10;64.70;;;;;;5052626;28;20174;-70
2021/07/09 07:20:22;;;;;;;4.60;4.22;;;22.10;64.50;;;;;;5052003;28;20661;-70
2021/07/09 07:22:47;;;;;;;4.18;3.83;;;22.00;64.50;;;;;;5052158;28;20233;-69
2021/07/09 07:25:13;;;;;;;4.55;4.20;;;22.10;64.50;;;;;;5052831;28;20175;-68
2021/07/09 07:27:39;;;;;;;4.55;4.15;;;22.10;64.40;;;;;;5051571;28;20171;-68
2021/07/09 07:30:05;;;;;;;4.13;3.83;;;22.10;64.40;;;;;;5053167;28;20175;-68
2021/07/09 07:32:30;;;;;;;4.22;3.92;;;22.10;64.40;;;;;;5052715;28;20172;-68
2021/07/09 07:34:56;;;;;;;4.68;4.28;;;22.10;64.40;;;;;;5052115;28;20663;-69
2021/07/09 07:37:22;;;;;;;4.13;3.83;;;22.10;64.40;;;;;;5052523;28;20646;-74
2021/07/09 07:39:47;;;;;;;4.45;4.15;;;22.10;64.30;;;;;;5052151;28;20183;-74
2021/07/09 07:42:13;;;;;;;4.30;4.00;;;22.20;64.50;;;;;;5051969;28;20512;-68
2021/07/09 07:44:38;;;;;;;3.65;3.45;;;22.20;64.70;;;;;;5052369;28;20214;-69
2021/07/09 07:47:05;;;;;;;3.88;3.58;;;22.20;64.50;;;;;;5051921;28;20521;-71
2021/07/09 07:49:30;;;;;;;3.97;3.50;;;22.20;64.30;;;;;;5052343;28;20265;-69
2021/07/09 07:51:56;;;;;;;4.43;3.92;;;22.30;64.40;;;;;;5054941;28;20171;-68
2021/07/09 07:54:21;;;;;;;5.00;3.92;;;22.30;64.30;;;;;;5055710;28;20175;-69
2021/07/09 07:56:47;;;;;;;4.38;3.90;;;22.30;64.40;;;;;;5055985;28;20535;-68
2021/07/09 07:59:12;;;;;;;4.05;3.60;;;22.30;64.30;;;;;;5056428;28;20202;-68
2021/07/09 08:01:38;;;;;;;4.45;3.70;;;22.30;64.30;;;;;;5055244;28;20175;-68
2021/07/09 08:04:04;;;;;;;4.55;4.15;;;22.30;64.40;;;;;;5056310;28;20560;-69
2021/07/09 08:06:29;;;;;;;5.40;3.85;;;22.40;64.50;;;;;;5055739;28;20178;-69
2021/07/09 08:08:55;;;;;;;3.97;3.53;;;22.40;64.60;;;;;;5055333;28;20175;-69
2021/07/09 08:11:21;;;;;;;4.03;3.72;;;22.40;64.50;;;;;;5056078;28;20332;-69
2021/07/09 08:13:47;;;;;;;4.78;3.78;;;22.40;64.70;;;;;;5055699;28;20779;-68
2021/07/09 08:16:12;;;;;;;4.35;3.95;;;22.40;64.80;;;;;;5055353;28;20211;-69
2021/07/09 08:18:38;;;;;;;3.75;3.45;;;22.40;64.70;;;;;;5055900;28;20186;-69
2021/07/09 08:21:04;;;;;;;5.15;3.65;;;22.40;64.70;;;;;;5056238;28;20262;-69
2021/07/09 08:23:29;;;;;;;5.45;3.72;;;22.40;64.90;;;;;;5054879;28;20276;-68
2021/07/09 08:25:55;;;;;;;5.38;3.42;;;22.50;64.90;;;;;;5056019;28;20179;-69
2021/07/09 08:28:21;;;;;;;5.30;3.60;;;22.50;64.90;;;;;;5055804;28;20186;-68
2021/07/09 08:30:47;;;;;;;4.43;3.35;;;22.50;64.90;;;;;;5054420;28;20182;-68
2021/07/09 08:33:12;;;;;;;3.92;3.63;;;22.50;64.80;;;;;;5055292;28;20262;-69
2021/07/09 08:35:38;;;;;;;4.68;3.33;;;22.60;64.90;;;;;;5054562;28;20653;-70
2021/07/09 08:38:04;;;;;;;4.28;3.90;;;22.60;64.90;;;;;;5054453;28;20175;-70
2021/07/09 08:40:29;;;;;;;4.13;3.75;;;22.60;64.80;;;;;;5054987;28;20199;-71
2021/07/09 08:42:55;;;;;;;4.97;3.75;;;22.60;64.80;;;;;;5054529;28;20277;-71
2021/07/09 08:45:20;;;;;;;5.75;3.67;;;22.60;64.80;;;;;;5054221;28;20540;-69
2021/07/09 08:47:46;;;;;;;4.15;3.75;;;22.60;64.80;;;;;;5055074;28;20221;-70
2021/07/09 08:50:11;;;;;;;5.53;4.05;;;22.60;64.80;;;;;;5054010;28;20176;-67
2021/07/09 08:52:37;;;;;;;4.97;3.67;;;22.70;64.90;;;;;;5054233;28;20207;-68
2021/07/09 08:55:11;;;;;;;7.20;3.55;;;22.60;65.00;;;;;;5054005;28;20174;-71
2021/07/09 08:57:37;;;;;;;4.00;3.60;;;22.70;65.10;;;;;;5054516;28;20287;-70
2021/07/09 09:00:06;;;;;;;3.65;2.97;;;22.70;64.90;;;;;;5055381;28;20217;-70
2021/07/09 09:02:31;;;;;;;5.95;3.65;;;22.70;64.90;;;;;;5054335;28;20175;-70
2021/07/09 09:04:57;;;;;;;4.07;3.67;;;22.80;64.90;;;;;;5054418;28;20179;-72
2021/07/09 09:07:27;;;;;;;7.13;3.45;;;22.80;64.90;;;;;;5054939;28;20202;-72
2021/07/09 09:09:56;;;;;;;5.93;4.03;;;22.80;64.80;;;;;;5054827;28;20211;-73
2021/07/09 09:12:21;;;;;;;6.28;3.30;;;22.80;64.90;;;;;;5054357;28;20241;-72
2021/07/09 09:14:48;;;;;;;6.25;4.22;;;22.80;65.00;;;;;;5054511;28;20193;-72
2021/07/09 09:17:31;;;;;;;7.82;3.33;;;22.80;64.90;;;;;;5054857;28;20756;-70
2021/07/09 09:20:11;;;;;;;6.15;3.65;;;22.80;64.90;;;;;;5054249;28;20187;-71
2021/07/09 09:22:56;;;;;;;3.53;3.22;;;22.90;64.80;;;;;;5054190;28;20642;-66
2021/07/09 09:25:27;;;;;;;4.53;3.50;;;22.90;64.80;;;;;;5054476;28;20599;-67
2021/07/09 09:28:00;;;;;;;4.57;3.70;;;23.00;64.80;;;;;;5054131;28;20170;-67
2021/07/09 09:30:26;;;;;;;6.15;3.95;;;22.90;64.70;;;;;;5055329;28;20179;-65
2021/07/09 09:32:52;;;;;;;5.55;3.78;;;23.00;64.80;;;;;;5053780;28;20189;-65
2021/07/09 09:35:22;;;;;;;5.05;3.90;;;23.10;64.70;;;;;;5054501;28;20266;-65
2021/07/09 09:38:01;;;;;;;6.18;3.72;;;23.10;64.80;;;;;;5054133;28;20653;-65
2021/07/09 09:40:27;;;;;;;9.55;3.95;;;23.10;64.80;;;;;;5053610;28;20175;-65
2021/07/09 09:42:53;;;;;;;6.07;4.13;;;23.00;65.00;;;;;;5054174;28;20207;-64
2021/07/09 09:45:25;;;;;;;7.07;4.10;;;23.00;65.20;;;;;;5054635;28;20187;-65
2021/07/09 09:47:51;;;;;;;4.53;3.40;;;23.00;65.20;;;;;;5053647;28;20262;-70
2021/07/09 09:50:19;;;;;;;5.22;3.78;;;23.00;65.70;;;;;;5054494;28;20258;-64
2021/07/09 09:52:48;;;;;;;6.72;4.15;;;23.00;65.60;;;;;;5053948;28;20175;-65
2021/07/09 09:55:15;;;;;;;6.55;3.80;;;23.00;65.70;;;;;;5053399;28;20175;-65
2021/07/09 09:57:41;;;;;;;7.38;3.85;;;23.00;65.60;;;;;;5053627;28;20257;-64
2021/07/09 10:00:08;;;;;;;7.57;4.03;;;23.00;65.60;;;;;;5053819;28;20183;-64
2021/07/09 10:02:36;;;;;;;6.72;3.67;;;22.90;65.50;;;;;;5058007;28;20179;-64
2021/07/09 10:05:02;;;;;;;5.10;4.05;;;22.90;65.40;;;;;;5063983;28;20182;-65
2021/07/09 10:07:28;;;;;;;4.07;3.63;;;22.90;65.40;;;;;;5070975;28;20166;-64
2021/07/09 10:09:54;;;;;;;5.68;3.30;;;22.90;65.50;;;;;;5052300;28;20183;-65
2021/07/09 10:12:20;;;;;;;6.60;3.97;;;23.00;65.10;;;;;;5056875;28;20289;-65
2021/07/09 10:14:46;;;;;;;5.75;3.50;;;23.00;65.00;;;;;;5070971;28;20217;-64
2021/07/09 10:17:14;;;;;;;4.80;3.90;;;23.00;65.10;;;;;;5073521;28;20234;-65
2021/07/09 10:19:40;;;;;;;7.05;3.85;;;23.00;65.00;;;;;;5048941;28;20178;-65
2021/07/09 10:22:06;;;;;;;4.35;3.80;;;23.10;64.80;;;;;;5063580;28;20292;-64
2021/07/09 10:24:32;;;;;;;4.15;3.60;;;23.00;64.90;;;;;;5063672;28;20210;-65
2021/07/09 10:26:58;;;;;;;7.82;3.80;;;22.90;64.90;;;;;;5063753;28;20254;-65
2021/07/09 10:29:25;;;;;;;7.00;4.10;;;22.90;65.00;;;;;;5052858;28;20265;-65
2021/07/09 10:31:52;;;;;;;4.60;3.70;;;22.90;65.10;;;;;;5066595;28;20265;-65
2021/07/09 10:34:34;;;;;;;4.43;4.03;;;22.90;65.20;;;;;;5073390;28;20190;-65
2021/07/09 10:37:18;;;;;;;6.53;4.32;;;22.90;65.20;;;;;;5072855;28;20154;-66
2021/07/09 10:39:48;;;;;;;5.03;3.65;;;22.90;65.20;;;;;;5064615;28;20266;-66
2021/07/09 10:42:26;;;;;;;6.25;3.40;;;22.90;65.10;;;;;;5053468;28;20618;-65
2021/07/09 10:45:07;;;;;;;4.97;3.72;;;22.90;65.00;;;;;;5052205;28;20202;-66
2021/07/09 10:47:40;;;;;;;5.85;3.60;;;23.00;65.00;;;;;;5053164;28;20159;-65
2021/07/09 10:50:15;;;;;;;5.00;4.40;;;23.00;64.90;;;;;;5052451;28;20175;-65
2021/07/09 10:52:47;;;;;;;5.65;3.95;;;23.00;64.90;;;;;;5052969;28;20170;-67
2021/07/09 10:55:24;;;;;;;5.10;3.63;;;23.00;65.00;;;;;;5052877;28;20183;-65
2021/07/09 10:58:17;;;;;;;5.63;3.90;;;22.90;65.00;;;;;;5069025;28;20174;-65
2021/07/09 11:00:57;;;;;;;4.45;3.83;;;23.00;65.20;;;;;;5061482;28;20232;-65
2021/07/09 11:03:37;;;;;;;5.72;3.50;;;23.00;65.20;;;;;;5052985;28;20215;-65
2021/07/09 11:06:22;;;;;;;6.20;3.97;;;23.10;65.00;;;;;;5052190;28;20523;-66
2021/07/09 11:09:04;;;;;;;5.35;4.00;;;23.00;64.90;;;;;;5053003;28;20258;-65
2021/07/09 11:11:43;;;;;;;6.90;4.20;;;23.00;65.00;;;;;;5051833;28;20175;-65
2021/07/09 11:14:16;;;;;;;4.35;3.65;;;23.00;65.00;;;;;;5052665;28;20171;-65
2021/07/09 11:16:42;;;;;;;4.38;3.80;;;23.00;65.10;;;;;;5052647;28;20182;-66
2021/07/09 11:19:11;;;;;;;7.30;4.22;;;23.00;65.10;;;;;;5052254;28;20178;-66
2021/07/09 11:21:37;;;;;;;6.72;4.07;;;23.00;65.10;;;;;;5052353;28;20221;-71
2021/07/09 11:24:09;;;;;;;6.07;4.60;;;23.00;65.10;;;;;;5052516;28;20298;-69
2021/07/09 11:26:45;;;;;;;9.57;5.03;;;23.00;65.30;;;;;;5057718;28;20581;-65
2021/07/09 11:29:18;;;;;;;5.88;4.35;;;23.00;65.40;;;;;;5059490;28;20266;-62
2021/07/09 11:31:43;;;;;;;8.15;3.65;;;23.00;65.30;;;;;;5073913;28;20177;-64
2021/07/09 11:34:10;;;;;;;9.88;4.60;;;23.00;65.50;;;;;;5078801;28;20174;-64
2021/07/09 11:36:56;;;;;;;9.32;4.80;;;23.20;65.00;;;;;;5079115;28;20354;-66
2021/07/09 11:39:27;;;;;;;8.80;5.45;;;23.40;64.30;;;;;;5078421;28;20181;-72
2021/07/09 11:42:02;;;;;;;5.85;4.18;;;23.50;64.20;;;;;;5079101;28;20170;-67
2021/07/09 11:44:49;;;;;;;13.57;4.35;;;23.50;64.10;;;;;;5079249;28;20223;-67
2021/07/09 11:47:18;;;;;;;6.57;4.40;;;23.50;64.40;;;;;;5078312;28;20170;-71
2021/07/09 11:49:47;;;;;;;9.00;4.45;;;23.40;64.70;;;;;;5078561;28;20231;-71
2021/07/09 11:52:14;;;;;;;11.27;4.72;;;23.40;64.90;;;;;;5079134;28;20643;-72
2021/07/09 11:54:46;;;;;;;9.48;5.07;;;23.40;64.80;;;;;;5078125;28;20628;-70
2021/07/09 11:57:24;;;;;;;8.93;5.15;;;23.40;64.80;;;;;;5079293;28;20179;-70
2021/07/09 11:59:52;;;;;;;10.50;5.10;;;23.50;64.70;;;;;;5078794;28;20179;-71
2021/07/09 12:02:21;;;;;;;8.35;4.32;;;23.50;65.10;;;;;;5078333;28;20621;-69
2021/07/09 12:04:47;;;;;;;7.43;4.70;;;23.40;65.20;;;;;;5078783;28;20293;-71
2021/07/09 12:07:14;;;;;;;5.68;4.85;;;23.40;65.50;;;;;;5078585;28;20179;-71
2021/07/09 12:09:40;;;;;;;8.40;5.15;;;23.50;65.20;;;;;;5078689;28;20178;-67
2021/07/09 12:12:06;;;;;;;8.13;5.28;;;23.60;65.50;;;;;;5079122;28;20231;-71
2021/07/09 12:14:31;;;;;;;11.52;4.80;;;23.60;65.20;;;;;;5077879;28;20671;-70
2021/07/09 12:16:59;;;;;;;8.82;4.88;;;23.60;65.10;;;;;;5079206;28;20178;-70
2021/07/09 12:19:24;;;;;;;5.35;4.80;;;23.70;65.10;;;;;;5078798;28;20583;-72
2021/07/09 12:21:53;;;;;;;9.77;4.63;;;23.70;65.10;;;;;;5077758;28;20258;-71
2021/07/09 12:24:20;;;;;;;9.48;4.47;;;23.80;64.90;;;;;;5078814;28;20222;-68
2021/07/09 12:26:47;;;;;;;7.63;4.68;;;23.80;64.90;;;;;;5078579;28;20628;-64
2021/07/09 12:29:13;;;;;;;8.15;4.57;;;23.70;65.10;;;;;;5077140;28;20183;-65
2021/07/09 12:31:38;;;;;;;8.18;5.25;;;23.70;65.60;;;;;;5064366;28;20166;-65
2021/07/09 12:34:04;;;;;;;5.82;4.55;;;23.60;65.50;;;;;;5058669;28;20652;-66
2021/07/09 12:36:31;;;;;;;5.75;4.53;;;23.70;65.40;;;;;;5054742;28;20186;-67
2021/07/09 12:38:58;;;;;;;7.97;4.30;;;23.60;65.40;;;;;;5054123;28;20811;-66
2021/07/09 12:41:31;;;;;;;7.43;5.10;;;23.70;65.20;;;;;;5055528;28;20622;-67
2021/07/09 12:43:57;;;;;;;11.90;4.78;;;23.80;64.80;;;;;;5054623;28;20591;-67
2021/07/09 12:46:24;;;;;;;5.43;4.47;;;23.90;64.50;;;;;;5057333;28;20649;-67